Time;durP1;ratioP1;P1;durP2;ratioP2;P2;SDS_P1;SDS_P2;PMS_P1;PMS_P2;Temp;Humidity;BMP_temperature;BMP_pressure;BME280_temperature;BME280_humidity;BME280_pressure;Samples;Min_cycle;Max_cycle;Signal;HPM_P1;HPM_P2
2022/12/05 05:06:47;;;;;;;;;20.00;20.00;;;;;;;;6294179;31;9999911;-61
2022/12/05 05:12:58;;;;;;;;;24.50;23.50;;;;;;;;6489828;46;8860;-59
2022/12/05 05:19:03;;;;;;;;;16.00;16.00;;;;;;;;6490090;31;9022;-59
2022/12/05 05:25:07;;;;;;;;;28.00;25.00;;;;;;;;6489643;47;8865;-61
2022/12/05 05:31:12;;;;;;;;;31.00;29.50;;;;;;;;6490069;31;8870;-60
2022/12/05 05:37:15;;;;;;;;;38.75;34.00;;;;;;;;6487652;47;8878;-61
2022/12/05 05:43:28;;;;;;;;;35.00;26.50;;;;;;;;6489978;39;8961;-61
2022/12/05 05:49:31;;;;;;;;;35.50;29.00;;;;;;;;6489379;47;8864;-64
2022/12/05 05:55:40;;;;;;;;;27.50;24.50;;;;;;;;6490568;39;8869;-60
2022/12/05 06:01:46;;;;;;;;;22.50;19.75;;;;;;;;6490020;31;8891;-59
2022/12/05 06:07:51;;;;;;;;;27.50;25.25;;;;;;;;6489732;46;8904;-60
2022/12/05 06:14:03;;;;;;;;;27.00;26.50;;;;;;;;6488246;47;9011;-60
2022/12/05 06:20:10;;;;;;;;;33.00;30.50;;;;;;;;6488927;39;8849;-59
2022/12/05 06:26:20;;;;;;;;;28.00;24.00;;;;;;;;6490040;39;8871;-60
2022/12/05 06:32:29;;;;;;;;;36.25;31.25;;;;;;;;6490165;39;8876;-59
2022/12/05 06:38:43;;;;;;;;;34.75;28.00;;;;;;;;6491128;39;9586;-60
2022/12/05 06:44:51;;;;;;;;;21.00;16.25;;;;;;;;6489973;39;9078;-61
2022/12/05 06:50:59;;;;;;;;;29.00;25.50;;;;;;;;6492156;39;9489;-60
2022/12/05 06:57:04;;;;;;;;;31.50;28.25;;;;;;;;6490494;46;8977;-59
2022/12/05 07:03:12;;;;;;;;;27.50;25.75;;;;;;;;6490375;39;8963;-61
2022/12/05 07:15:54;;;;;;;;;18.25;18.25;;;;;;;;6486755;39;8938;-59
2022/12/05 07:22:09;;;;;;;;;27.50;26.00;;;;;;;;6488947;31;9617;-61
2022/12/05 07:28:24;;;;;;;;;29.00;26.50;;;;;;;;6488150;39;8911;-60
2022/12/05 07:34:32;;;;;;;;;35.50;29.25;;;;;;;;6490253;31;8879;-61
2022/12/05 07:40:46;;;;;;;;;32.75;29.50;;;;;;;;6485480;31;8984;-62
2022/12/05 07:47:08;;;;;;;;;36.75;35.75;;;;;;;;6485213;31;9102;-59
2022/12/05 07:53:19;;;;;;;;;36.75;33.00;;;;;;;;6487242;39;9001;-61
2022/12/05 07:59:33;;;;;;;;;37.75;28.25;;;;;;;;6489128;39;9032;-60
2022/12/05 08:05:43;;;;;;;;;29.00;27.00;;;;;;;;6486988;46;8982;-61
2022/12/05 08:11:47;;;;;;;;;32.25;27.00;;;;;;;;6485546;31;8923;-60
2022/12/05 08:17:58;;;;;;;;;32.75;24.25;;;;;;;;6486183;46;8947;-60
2022/12/05 08:24:14;;;;;;;;;31.75;29.00;;;;;;;;6484362;46;9018;-60
2022/12/05 08:30:21;;;;;;;;;40.00;35.50;;;;;;;;6485971;39;9028;-61
2022/12/05 08:36:33;;;;;;;;;29.00;26.50;;;;;;;;6481837;39;8959;-59
2022/12/05 08:42:54;;;;;;;;;32.25;27.00;;;;;;;;6486260;39;8876;-60
2022/12/05 08:49:11;;;;;;;;;41.50;33.25;;;;;;;;6486316;31;8940;-60
2022/12/05 08:55:25;;;;;;;;;32.75;30.75;;;;;;;;6484559;46;8993;-61
2022/12/05 09:01:37;;;;;;;;;25.50;22.00;;;;;;;;6484349;31;9184;-60
2022/12/05 09:07:50;;;;;;;;;28.75;25.00;;;;;;;;6481793;39;8963;-60
2022/12/05 09:13:58;;;;;;;;;32.25;20.00;;;;;;;;6483413;31;9040;-60
2022/12/05 10:23:26;;;;;;;;;37.00;32.00;;;;;;;;6471493;31;9621;-60
2022/12/05 10:30:13;;;;;;;;;34.25;28.00;;;;;;;;6485232;46;8977;-62
2022/12/05 10:36:15;;;;;;;;;47.50;41.25;;;;;;;;6484961;39;9009;-63
2022/12/05 10:42:27;;;;;;;;;36.25;35.00;;;;;;;;6482067;31;9757;-64
2022/12/05 10:48:35;;;;;;;;;45.00;40.75;;;;;;;;6483420;39;8935;-62
2022/12/05 10:55:03;;;;;;;;;41.00;41.00;;;;;;;;6483295;46;8915;-64
2022/12/05 11:01:09;;;;;;;;;40.25;36.50;;;;;;;;6486371;31;8943;-63
2022/12/05 11:07:29;;;;;;;;;16.50;16.00;;;;;;;;6484900;31;8988;-64
2022/12/05 11:13:34;;;;;;;;;27.75;26.25;;;;;;;;6486424;31;8919;-60
2022/12/05 11:19:38;;;;;;;;;38.00;36.00;;;;;;;;6486516;31;8944;-60
2022/12/05 11:25:41;;;;;;;;;41.00;37.75;;;;;;;;6478895;31;8919;-64
2022/12/05 11:31:51;;;;;;;;;46.75;41.75;;;;;;;;6479928;39;9434;-63
2022/12/05 11:38:04;;;;;;;;;36.25;32.50;;;;;;;;6484043;31;9089;-61
2022/12/05 11:44:38;;;;;;;;;41.75;32.00;;;;;;;;6483492;46;9011;-61
2022/12/05 11:51:12;;;;;;;;;41.50;39.75;;;;;;;;6302880;39;10000978;-60
2022/12/05 11:57:36;;;;;;;;;39.50;35.75;;;;;;;;6483012;39;12702;-62
2022/12/05 12:04:09;;;;;;;;;30.75;24.50;;;;;;;;6483463;31;9507;-61
2022/12/05 12:10:12;;;;;;;;;46.00;39.75;;;;;;;;6481279;39;8982;-61
2022/12/05 12:16:47;;;;;;;;;35.75;34.50;;;;;;;;6480948;31;9020;-60
2022/12/05 12:23:25;;;;;;;;;37.50;35.00;;;;;;;;6479709;39;8973;-61
2022/12/05 12:29:38;;;;;;;;;40.75;34.50;;;;;;;;6482649;39;8927;-63
2022/12/05 12:36:00;;;;;;;;;48.00;41.50;;;;;;;;6304438;31;10001533;-61
2022/12/05 12:42:22;;;;;;;;;36.50;35.00;;;;;;;;6483120;31;9036;-61
2022/12/05 12:48:34;;;;;;;;;36.75;33.00;;;;;;;;6482020;31;8938;-61
2022/12/05 12:54:57;;;;;;;;;46.25;37.75;;;;;;;;6480609;39;9009;-60
2022/12/05 13:01:27;;;;;;;;;33.25;31.50;;;;;;;;6479244;46;8971;-61
2022/12/05 13:07:51;;;;;;;;;31.25;30.75;;;;;;;;6481829;39;8944;-60
2022/12/05 13:13:59;;;;;;;;;36.00;26.75;;;;;;;;6483661;39;8990;-61
2022/12/05 13:20:02;;;;;;;;;25.50;24.75;;;;;;;;6302475;31;10001449;-60
2022/12/05 13:26:10;;;;;;;;;35.75;33.00;;;;;;;;6481964;39;8915;-63
2022/12/05 13:32:39;;;;;;;;;33.75;31.00;;;;;;;;6480489;39;9014;-62
2022/12/05 13:45:10;;;;;;;;;23.00;21.75;;;;;;;;6481947;39;10553;-61
2022/12/05 13:51:31;;;;;;;;;44.00;38.00;;;;;;;;6481179;39;9636;-62
2022/12/05 13:57:40;;;;;;;;;28.00;26.25;;;;;;;;6482397;39;8958;-60
2022/12/05 14:03:48;;;;;;;;;32.50;30.75;;;;;;;;6484123;46;8939;-61
2022/12/05 14:09:54;;;;;;;;;24.00;22.00;;;;;;;;6484856;36;9106;-60
2022/12/05 14:16:22;;;;;;;;;34.50;31.75;;;;;;;;6483427;39;9016;-60
2022/12/05 14:23:15;;;;;;;;;28.25;26.75;;;;;;;;6483417;31;9006;-59
2022/12/05 14:29:54;;;;;;;;;29.50;25.50;;;;;;;;6484344;39;8933;-61
2022/12/05 14:36:07;;;;;;;;;25.75;22.50;;;;;;;;6484314;39;8980;-59
2022/12/05 14:42:35;;;;;;;;;31.50;29.75;;;;;;;;6484432;31;9583;-60
2022/12/05 14:48:40;;;;;;;;;28.75;25.75;;;;;;;;6487783;46;8867;-60
2022/12/05 14:54:57;;;;;;;;;25.75;24.25;;;;;;;;6487113;39;8926;-60
2022/12/05 15:01:06;;;;;;;;;34.50;30.25;;;;;;;;6489370;31;8870;-60
2022/12/05 15:07:18;;;;;;;;;44.00;38.50;;;;;;;;6488058;39;8878;-60
2022/12/05 15:13:26;;;;;;;;;31.25;28.25;;;;;;;;6489736;39;10374;-60
2022/12/05 15:19:44;;;;;;;;;39.25;32.00;;;;;;;;6486196;31;9001;-60
2022/12/05 15:25:52;;;;;;;;;28.00;26.00;;;;;;;;6487037;39;9015;-60
2022/12/05 15:32:18;;;;;;;;;29.75;26.75;;;;;;;;6487857;46;8870;-62
2022/12/05 15:38:29;;;;;;;;;37.75;32.25;;;;;;;;6487797;39;8915;-62
2022/12/05 15:44:41;;;;;;;;;36.50;31.75;;;;;;;;6489008;39;8843;-60
2022/12/05 15:50:52;;;;;;;;;30.25;30.25;;;;;;;;6487476;46;8861;-61
2022/12/05 15:57:06;;;;;;;;;29.50;26.25;;;;;;;;6489240;36;8928;-60
2022/12/05 16:03:18;;;;;;;;;37.00;35.50;;;;;;;;6488222;46;8857;-61
2022/12/05 16:09:30;;;;;;;;;48.50;42.50;;;;;;;;6487796;39;8861;-61
2022/12/05 16:15:32;;;;;;;;;37.25;35.75;;;;;;;;6488445;39;9020;-62
2022/12/05 16:21:39;;;;;;;;;38.75;36.75;;;;;;;;6486780;46;8921;-62
2022/12/05 16:27:42;;;;;;;;;47.50;41.00;;;;;;;;6486981;39;8901;-62
2022/12/05 16:33:46;;;;;;;;;47.00;35.50;;;;;;;;6486963;36;8907;-61
2022/12/05 16:39:48;;;;;;;;;42.00;36.50;;;;;;;;6486795;46;8938;-60
2022/12/05 16:45:55;;;;;;;;;36.25;32.75;;;;;;;;6486933;31;8851;-61
2022/12/05 16:52:06;;;;;;;;;34.75;29.00;;;;;;;;6487209;31;8925;-61
2022/12/05 16:58:13;;;;;;;;;41.75;38.75;;;;;;;;6487210;39;9054;-62
2022/12/05 17:04:16;;;;;;;;;44.25;37.25;;;;;;;;6486562;39;8898;-61
2022/12/05 17:10:18;;;;;;;;;38.75;36.50;;;;;;;;6487088;39;8906;-62
2022/12/05 17:16:25;;;;;;;;;38.00;35.75;;;;;;;;6487213;39;8909;-61
2022/12/05 17:22:29;;;;;;;;;38.00;32.25;;;;;;;;6486150;46;9006;-61
2022/12/05 17:28:31;;;;;;;;;36.25;29.50;;;;;;;;6487220;39;8878;-63
2022/12/05 17:34:33;;;;;;;;;30.50;26.00;;;;;;;;6486545;39;8866;-62
2022/12/05 17:40:37;;;;;;;;;36.75;34.25;;;;;;;;6485651;47;8874;-60
2022/12/05 17:46:41;;;;;;;;;36.00;33.25;;;;;;;;6486471;47;8890;-61
2022/12/05 17:52:44;;;;;;;;;32.00;32.00;;;;;;;;6485592;39;8866;-61
2022/12/05 17:58:47;;;;;;;;;34.75;28.25;;;;;;;;6485653;31;8973;-62
2022/12/05 18:04:49;;;;;;;;;33.25;30.75;;;;;;;;6486344;31;8871;-62
2022/12/05 18:10:51;;;;;;;;;36.25;30.50;;;;;;;;6486080;47;8862;-62
2022/12/05 18:16:53;;;;;;;;;37.75;31.75;;;;;;;;6486111;31;9142;-63
2022/12/05 18:22:56;;;;;;;;;31.50;28.00;;;;;;;;6487242;46;8938;-62
2022/12/05 18:28:58;;;;;;;;;34.00;31.00;;;;;;;;6488086;46;8911;-62
2022/12/05 18:35:04;;;;;;;;;26.50;26.50;;;;;;;;6488217;31;9038;-64
2022/12/05 18:41:13;;;;;;;;;35.00;31.00;;;;;;;;6488686;39;9501;-64
2022/12/05 18:47:15;;;;;;;;;30.50;29.00;;;;;;;;6488304;39;9565;-64
2022/12/05 18:53:20;;;;;;;;;37.00;33.00;;;;;;;;6486814;31;8992;-61
2022/12/05 18:59:24;;;;;;;;;31.75;28.25;;;;;;;;6487443;31;8978;-62
2022/12/05 19:05:31;;;;;;;;;29.00;28.00;;;;;;;;6487315;31;8902;-61
2022/12/05 19:11:36;;;;;;;;;43.00;39.75;;;;;;;;6488160;39;8846;-61
2022/12/05 19:17:38;;;;;;;;;33.00;31.00;;;;;;;;6487087;39;8925;-62
2022/12/05 19:23:41;;;;;;;;;34.75;31.50;;;;;;;;6487823;31;8902;-63
2022/12/05 19:29:43;;;;;;;;;30.25;29.00;;;;;;;;6487570;39;8902;-61
2022/12/05 19:35:45;;;;;;;;;25.00;24.75;;;;;;;;6487526;46;8948;-62
2022/12/05 19:41:49;;;;;;;;;25.25;24.00;;;;;;;;6532495;36;8957;-63
2022/12/05 19:47:51;;;;;;;;;33.00;25.50;;;;;;;;6487445;39;8898;-61
2022/12/05 19:53:53;;;;;;;;;29.00;25.75;;;;;;;;6487419;39;9533;-61
2022/12/05 19:59:57;;;;;;;;;33.75;33.75;;;;;;;;6486768;39;8929;-62
2022/12/05 20:06:00;;;;;;;;;29.50;28.00;;;;;;;;6487538;39;8862;-65
2022/12/05 20:12:04;;;;;;;;;30.50;28.50;;;;;;;;6487226;31;8882;-61
2022/12/05 20:18:06;;;;;;;;;25.00;22.50;;;;;;;;6487330;39;8914;-61
2022/12/05 20:24:09;;;;;;;;;23.25;20.75;;;;;;;;6488144;31;8919;-62
2022/12/05 20:30:12;;;;;;;;;33.75;30.75;;;;;;;;6486500;39;8943;-61
2022/12/05 20:36:21;;;;;;;;;36.50;29.50;;;;;;;;6486714;46;8921;-61
2022/12/05 20:42:25;;;;;;;;;26.25;26.25;;;;;;;;6487080;39;8907;-63
2022/12/05 20:48:29;;;;;;;;;28.50;26.75;;;;;;;;6486724;31;8842;-63
2022/12/05 20:54:31;;;;;;;;;26.25;26.25;;;;;;;;6487169;39;9664;-62
2022/12/05 21:00:33;;;;;;;;;28.00;25.25;;;;;;;;6486782;46;9023;-61
2022/12/05 21:06:42;;;;;;;;;28.00;27.50;;;;;;;;6486476;39;8930;-60
2022/12/05 21:12:46;;;;;;;;;37.00;35.25;;;;;;;;6486891;39;9725;-60
2022/12/05 21:18:49;;;;;;;;;32.00;30.00;;;;;;;;6487157;31;8994;-62
2022/12/05 21:24:55;;;;;;;;;36.75;28.50;;;;;;;;6487206;46;8894;-61
2022/12/05 21:31:10;;;;;;;;;22.75;19.50;;;;;;;;6486504;47;8969;-62
2022/12/05 21:37:13;;;;;;;;;30.00;30.00;;;;;;;;6486650;47;8922;-66
2022/12/05 21:43:16;;;;;;;;;29.00;28.25;;;;;;;;6487143;46;8914;-66
2022/12/05 21:49:18;;;;;;;;;29.50;29.50;;;;;;;;6486607;39;8842;-63
2022/12/05 21:55:21;;;;;;;;;30.50;27.25;;;;;;;;6487772;46;8847;-63
2022/12/05 22:01:26;;;;;;;;;39.00;37.25;;;;;;;;6488216;39;8930;-62
2022/12/05 22:07:29;;;;;;;;;59.75;50.50;;;;;;;;6489008;39;8873;-61
2022/12/05 22:13:32;;;;;;;;;80.25;64.00;;;;;;;;6488950;39;8918;-61
2022/12/05 22:19:33;;;;;;;;;73.00;60.67;;;;;;;;6488251;39;9574;-60
2022/12/05 22:25:36;;;;;;;;;74.50;58.75;;;;;;;;6489064;31;8953;-61
2022/12/05 22:31:38;;;;;;;;;56.50;47.00;;;;;;;;6487948;46;8895;-62
2022/12/05 22:37:41;;;;;;;;;37.00;37.00;;;;;;;;6487412;39;8899;-62
2022/12/05 22:43:45;;;;;;;;;53.25;44.75;;;;;;;;6487825;31;8871;-61
2022/12/05 22:49:47;;;;;;;;;40.00;37.25;;;;;;;;6487391;31;8887;-62
2022/12/05 22:55:50;;;;;;;;;42.25;39.00;;;;;;;;6489132;31;9529;-59
2022/12/05 23:01:53;;;;;;;;;32.50;23.00;;;;;;;;6488436;31;8997;-61
2022/12/05 23:07:55;;;;;;;;;28.50;25.50;;;;;;;;6487731;39;8884;-61
2022/12/05 23:13:59;;;;;;;;;23.75;23.75;;;;;;;;6488263;31;8912;-64
2022/12/05 23:20:04;;;;;;;;;33.75;30.25;;;;;;;;6487824;31;8983;-61
2022/12/05 23:26:07;;;;;;;;;38.25;31.00;;;;;;;;6487650;39;9760;-60
2022/12/05 23:32:09;;;;;;;;;32.50;32.50;;;;;;;;6487453;31;8881;-62
2022/12/05 23:38:12;;;;;;;;;23.75;22.00;;;;;;;;6488841;31;9612;-62
2022/12/05 23:44:13;;;;;;;;;25.75;21.25;;;;;;;;6487119;39;8901;-62
2022/12/05 23:50:16;;;;;;;;;34.50;30.00;;;;;;;;6487599;39;8877;-63
2022/12/05 23:56:21;;;;;;;;;34.00;28.50;;;;;;;;6487626;46;8919;-60
